sensor_id;sensor_type;location;lat;lon;timestamp;pressure;altitude;pressure_sealevel;temperature;humidity
71476;BME280;59286;59.274;17.974;2023-04-16T00:02:09;102240.53;;;2.03;67.25
71476;BME280;59286;59.274;17.974;2023-04-16T00:04:34;102243.50;;;1.99;67.64
71476;BME280;59286;59.274;17.974;2023-04-16T00:07:00;102241.91;;;1.98;68.05
71476;BME280;59286;59.274;17.974;2023-04-16T00:09:25;102238.72;;;1.96;67.98
71476;BME280;59286;59.274;17.974;2023-04-16T00:11:50;102228.56;;;1.88;68.12
71476;BME280;59286;59.274;17.974;2023-04-16T00:14:16;102226.19;;;1.80;68.29
71476;BME280;59286;59.274;17.974;2023-04-16T00:16:41;102233.72;;;1.75;68.42
71476;BME280;59286;59.274;17.974;2023-04-16T00:19:06;102235.72;;;1.73;69.00
71476;BME280;59286;59.274;17.974;2023-04-16T00:21:32;102218.16;;;1.62;69.28
71476;BME280;59286;59.274;17.974;2023-04-16T00:23:57;102220.34;;;1.59;69.19
71476;BME280;59286;59.274;17.974;2023-04-16T00:26:22;102221.72;;;1.55;69.95
71476;BME280;59286;59.274;17.974;2023-04-16T00:28:48;102214.97;;;1.54;70.23
71476;BME280;59286;59.274;17.974;2023-04-16T00:31:13;102210.97;;;1.45;70.20
71476;BME280;59286;59.274;17.974;2023-04-16T00:33:38;102214.97;;;1.47;70.34
71476;BME280;59286;59.274;17.974;2023-04-16T00:36:04;102225.13;;;1.49;70.72
71476;BME280;59286;59.274;17.974;2023-04-16T00:38:29;102221.13;;;1.46;71.00
71476;BME280;59286;59.274;17.974;2023-04-16T00:40:56;102220.56;;;1.51;71.02
71476;BME280;59286;59.274;17.974;2023-04-16T00:43:23;102207.03;;;1.49;71.05
71476;BME280;59286;59.274;17.974;2023-04-16T00:45:51;102212.56;;;1.46;71.12
71476;BME280;59286;59.274;17.974;2023-04-16T00:48:16;102210.59;;;1.41;71.88
71476;BME280;59286;59.274;17.974;2023-04-16T00:50:42;102201.03;;;1.35;71.69
71476;BME280;59286;59.274;17.974;2023-04-16T00:53:07;102203.00;;;1.33;71.82
71476;BME280;59286;59.274;17.974;2023-04-16T00:55:33;102206.19;;;1.35;71.93
71476;BME280;59286;59.274;17.974;2023-04-16T00:57:59;102200.19;;;1.28;72.06
71476;BME280;59286;59.274;17.974;2023-04-16T01:00:24;102193.44;;;1.27;72.02
71476;BME280;59286;59.274;17.974;2023-04-16T01:02:52;102199.00;;;1.31;72.32
71476;BME280;59286;59.274;17.974;2023-04-16T01:05:17;102196.22;;;1.26;73.07
71476;BME280;59286;59.274;17.974;2023-04-16T01:07:43;102199.19;;;1.29;72.51
71476;BME280;59286;59.274;17.974;2023-04-16T01:10:08;102198.59;;;1.27;73.01
71476;BME280;59286;59.274;17.974;2023-04-16T01:12:33;102188.06;;;1.22;72.78
71476;BME280;59286;59.274;17.974;2023-04-16T01:14:59;102194.78;;;1.17;73.08
71476;BME280;59286;59.274;17.974;2023-04-16T01:17:24;102183.44;;;1.11;73.20
71476;BME280;59286;59.274;17.974;2023-04-16T01:19:50;102189.41;;;1.12;72.87
71476;BME280;59286;59.274;17.974;2023-04-16T01:22:15;102186.00;;;1.05;73.52
71476;BME280;59286;59.274;17.974;2023-04-16T01:24:41;102183.78;;;0.95;73.77
71476;BME280;59286;59.274;17.974;2023-04-16T01:27:06;102182.16;;;0.87;74.19
71476;BME280;59286;59.274;17.974;2023-04-16T01:29:31;102193.66;;;0.85;75.17
71476;BME280;59286;59.274;17.974;2023-04-16T01:31:57;102196.38;;;0.77;75.54
71476;BME280;59286;59.274;17.974;2023-04-16T01:34:22;102188.41;;;0.72;75.37
71476;BME280;59286;59.274;17.974;2023-04-16T01:36:47;102196.56;;;0.69;76.13
71476;BME280;59286;59.274;17.974;2023-04-16T01:39:13;102179.59;;;0.60;76.35
71476;BME280;59286;59.274;17.974;2023-04-16T01:41:42;102189.91;;;0.60;76.67
71476;BME280;59286;59.274;17.974;2023-04-16T01:44:07;102185.38;;;0.62;77.10
71476;BME280;59286;59.274;17.974;2023-04-16T01:46:34;102182.38;;;0.58;77.10
71476;BME280;59286;59.274;17.974;2023-04-16T01:49:03;102189.50;;;0.56;77.61
71476;BME280;59286;59.274;17.974;2023-04-16T01:51:28;102176.19;;;0.53;77.40
71476;BME280;59286;59.274;17.974;2023-04-16T01:53:54;102183.72;;;0.54;77.75
71476;BME280;59286;59.274;17.974;2023-04-16T01:56:20;102182.34;;;0.52;77.97
71476;BME280;59286;59.274;17.974;2023-04-16T01:58:45;102172.38;;;0.49;77.60
71476;BME280;59286;59.274;17.974;2023-04-16T02:01:12;102170.59;;;0.43;78.21
71476;BME280;59286;59.274;17.974;2023-04-16T02:03:37;102170.34;;;0.38;78.47
71476;BME280;59286;59.274;17.974;2023-04-16T02:06:03;102176.72;;;0.42;78.45
71476;BME280;59286;59.274;17.974;2023-04-16T02:08:29;102171.53;;;0.35;78.44
71476;BME280;59286;59.274;17.974;2023-04-16T02:10:55;102170.91;;;0.33;78.90
71476;BME280;59286;59.274;17.974;2023-04-16T02:13:21;102175.47;;;0.31;78.89
71476;BME280;59286;59.274;17.974;2023-04-16T02:15:48;102173.44;;;0.27;79.36
71476;BME280;59286;59.274;17.974;2023-04-16T02:18:14;102175.47;;;0.31;79.25
71476;BME280;59286;59.274;17.974;2023-04-16T02:20:40;102175.41;;;0.25;79.16
71476;BME280;59286;59.274;17.974;2023-04-16T02:23:06;102175.78;;;0.22;79.72
71476;BME280;59286;59.274;17.974;2023-04-16T02:25:31;102182.53;;;0.23;79.75
71476;BME280;59286;59.274;17.974;2023-04-16T02:27:57;102164.63;;;0.15;79.62
71476;BME280;59286;59.274;17.974;2023-04-16T02:30:22;102174.56;;;0.18;79.71
71476;BME280;59286;59.274;17.974;2023-04-16T02:32:48;102173.72;;;0.11;80.32
71476;BME280;59286;59.274;17.974;2023-04-16T02:35:14;102172.72;;;0.12;79.93
71476;BME280;59286;59.274;17.974;2023-04-16T02:37:39;102173.91;;;0.09;80.20
71476;BME280;59286;59.274;17.974;2023-04-16T02:40:05;102180.03;;;0.08;80.32
71476;BME280;59286;59.274;17.974;2023-04-16T02:42:31;102185.41;;;0.13;80.71
71476;BME280;59286;59.274;17.974;2023-04-16T02:44:56;102186.59;;;0.11;80.49
71476;BME280;59286;59.274;17.974;2023-04-16T02:47:21;102180.41;;;0.05;80.52
71476;BME280;59286;59.274;17.974;2023-04-16T02:49:47;102180.00;;;0.02;80.56
71476;BME280;59286;59.274;17.974;2023-04-16T02:52:12;102152.16;;;-0.10;80.81
71476;BME280;59286;59.274;17.974;2023-04-16T02:54:37;102185.56;;;0.05;80.64
71476;BME280;59286;59.274;17.974;2023-04-16T02:57:02;102185.16;;;0.02;81.03
71476;BME280;59286;59.274;17.974;2023-04-16T02:59:28;102183.53;;;0.00;80.89
71476;BME280;59286;59.274;17.974;2023-04-16T03:01:53;102179.19;;;0.01;80.65
71476;BME280;59286;59.274;17.974;2023-04-16T03:04:18;102181.34;;;-0.03;80.69
71476;BME280;59286;59.274;17.974;2023-04-16T03:06:44;102181.53;;;-0.04;81.04
71476;BME280;59286;59.274;17.974;2023-04-16T03:09:09;102177.53;;;-0.07;81.44
71476;BME280;59286;59.274;17.974;2023-04-16T03:11:35;102179.13;;;-0.06;81.02
71476;BME280;59286;59.274;17.974;2023-04-16T03:14:00;102172.56;;;-0.08;81.16
71476;BME280;59286;59.274;17.974;2023-04-16T03:16:25;102176.91;;;-0.09;80.66
71476;BME280;59286;59.274;17.974;2023-04-16T03:18:51;102180.91;;;-0.06;80.76
71476;BME280;59286;59.274;17.974;2023-04-16T03:21:16;102173.91;;;-0.12;81.21
71476;BME280;59286;59.274;17.974;2023-04-16T03:23:41;102170.97;;;-0.09;80.88
71476;BME280;59286;59.274;17.974;2023-04-16T03:26:07;102181.13;;;-0.08;80.46
71476;BME280;59286;59.274;17.974;2023-04-16T03:28:32;102166.38;;;-0.14;81.06
71476;BME280;59286;59.274;17.974;2023-04-16T03:30:57;102172.75;;;-0.10;80.89
71476;BME280;59286;59.274;17.974;2023-04-16T03:33:22;102174.34;;;-0.09;80.65
71476;BME280;59286;59.274;17.974;2023-04-16T03:35:54;102172.50;;;-0.15;80.83
71476;BME280;59286;59.274;17.974;2023-04-16T03:38:20;102179.38;;;-0.22;80.33
71476;BME280;59286;59.274;17.974;2023-04-16T03:40:45;102177.72;;;-0.29;80.63
71476;BME280;59286;59.274;17.974;2023-04-16T03:43:10;102182.22;;;-0.38;82.09
71476;BME280;59286;59.274;17.974;2023-04-16T03:45:36;102184.78;;;-0.38;82.23
71476;BME280;59286;59.274;17.974;2023-04-16T03:48:01;102192.13;;;-0.35;82.27
71476;BME280;59286;59.274;17.974;2023-04-16T03:50:26;102197.97;;;-0.26;82.62
71476;BME280;59286;59.274;17.974;2023-04-16T03:52:51;102188.22;;;-0.31;82.99
71476;BME280;59286;59.274;17.974;2023-04-16T03:55:18;102185.88;;;-0.26;82.24
71476;BME280;59286;59.274;17.974;2023-04-16T03:57:43;102198.03;;;-0.20;82.24
71476;BME280;59286;59.274;17.974;2023-04-16T04:00:09;102204.84;;;-0.12;82.04
71476;BME280;59286;59.274;17.974;2023-04-16T04:02:34;102195.22;;;-0.25;82.74
71476;BME280;59286;59.274;17.974;2023-04-16T04:04:59;102198.28;;;-0.15;82.53
71476;BME280;59286;59.274;17.974;2023-04-16T04:07:25;102206.88;;;-0.08;82.85
71476;BME280;59286;59.274;17.974;2023-04-16T04:09:50;102181.13;;;-0.08;82.48
71476;BME280;59286;59.274;17.974;2023-04-16T04:12:15;102196.00;;;-0.03;82.78
71476;BME280;59286;59.274;17.974;2023-04-16T04:14:41;102186.31;;;-0.01;82.99
71476;BME280;59286;59.274;17.974;2023-04-16T04:17:07;102187.97;;;0.07;82.93
71476;BME280;59286;59.274;17.974;2023-04-16T04:19:32;102199.50;;;0.11;82.80
71476;BME280;59286;59.274;17.974;2023-04-16T04:21:58;102197.16;;;0.16;82.64
71476;BME280;59286;59.274;17.974;2023-04-16T04:24:23;102200.94;;;0.20;82.99
71476;BME280;59286;59.274;17.974;2023-04-16T04:26:48;102195.59;;;0.21;82.57
71476;BME280;59286;59.274;17.974;2023-04-16T04:29:14;102179.72;;;0.18;81.98
71476;BME280;59286;59.274;17.974;2023-04-16T04:31:40;102205.09;;;0.42;81.67
71476;BME280;59286;59.274;17.974;2023-04-16T04:34:05;102185.88;;;0.44;81.64
71476;BME280;59286;59.274;17.974;2023-04-16T04:36:30;102179.25;;;0.35;81.75
71476;BME280;59286;59.274;17.974;2023-04-16T04:38:56;102199.03;;;0.56;81.33
71476;BME280;59286;59.274;17.974;2023-04-16T04:41:21;102198.88;;;0.64;81.25
71476;BME280;59286;59.274;17.974;2023-04-16T04:43:47;102197.75;;;0.73;80.99
71476;BME280;59286;59.274;17.974;2023-04-16T04:46:12;102203.59;;;0.88;80.55
71476;BME280;59286;59.274;17.974;2023-04-16T04:48:37;102192.69;;;0.92;79.92
71476;BME280;59286;59.274;17.974;2023-04-16T04:51:03;102202.88;;;1.07;79.14
71476;BME280;59286;59.274;17.974;2023-04-16T04:53:28;102205.38;;;1.28;78.83
71476;BME280;59286;59.274;17.974;2023-04-16T04:55:54;102170.59;;;1.24;77.83
71476;BME280;59286;59.274;17.974;2023-04-16T04:58:19;102194.31;;;1.54;77.01
71476;BME280;59286;59.274;17.974;2023-04-16T05:00:45;102188.59;;;1.71;76.51
71476;BME280;59286;59.274;17.974;2023-04-16T05:03:11;102193.56;;;1.92;75.39
71476;BME280;59286;59.274;17.974;2023-04-16T05:05:39;102183.84;;;1.94;75.02
71476;BME280;59286;59.274;17.974;2023-04-16T05:08:05;102197.56;;;2.15;74.16
71476;BME280;59286;59.274;17.974;2023-04-16T05:10:31;102197.78;;;2.33;73.50
71476;BME280;59286;59.274;17.974;2023-04-16T05:12:56;102193.34;;;2.66;72.88
71476;BME280;59286;59.274;17.974;2023-04-16T05:15:22;102199.06;;;2.87;71.31
71476;BME280;59286;59.274;17.974;2023-04-16T05:17:47;102195.66;;;3.00;70.90
71476;BME280;59286;59.274;17.974;2023-04-16T05:20:12;102186.88;;;3.01;70.54
71476;BME280;59286;59.274;17.974;2023-04-16T05:22:38;102181.41;;;3.16;70.58
71476;BME280;59286;59.274;17.974;2023-04-16T05:25:03;102186.22;;;3.19;68.73
71476;BME280;59286;59.274;17.974;2023-04-16T05:27:29;102184.31;;;3.32;68.92
71476;BME280;59286;59.274;17.974;2023-04-16T05:29:54;102178.91;;;3.40;68.51
71476;BME280;59286;59.274;17.974;2023-04-16T05:32:20;102179.78;;;3.28;68.35
71476;BME280;59286;59.274;17.974;2023-04-16T05:34:45;102173.50;;;3.48;68.36
71476;BME280;59286;59.274;17.974;2023-04-16T05:37:10;102188.31;;;3.72;67.54
71476;BME280;59286;59.274;17.974;2023-04-16T05:39:36;102187.38;;;3.60;67.20
71476;BME280;59286;59.274;17.974;2023-04-16T05:42:01;102184.63;;;3.55;66.98
71476;BME280;59286;59.274;17.974;2023-04-16T05:44:27;102190.97;;;3.59;67.35
71476;BME280;59286;59.274;17.974;2023-04-16T05:46:52;102178.63;;;3.55;67.41
71476;BME280;59286;59.274;17.974;2023-04-16T05:49:17;102194.09;;;3.68;67.35
71476;BME280;59286;59.274;17.974;2023-04-16T05:51:43;102195.03;;;3.80;67.90
71476;BME280;59286;59.274;17.974;2023-04-16T05:54:08;102183.59;;;3.87;66.11
71476;BME280;59286;59.274;17.974;2023-04-16T05:56:33;102190.13;;;3.97;66.59
71476;BME280;59286;59.274;17.974;2023-04-16T05:58:59;102186.94;;;3.94;65.22
71476;BME280;59286;59.274;17.974;2023-04-16T06:01:24;102174.22;;;3.86;66.16
71476;BME280;59286;59.274;17.974;2023-04-16T06:03:49;102195.06;;;4.05;65.95
71476;BME280;59286;59.274;17.974;2023-04-16T06:06:15;102190.59;;;4.12;65.29
71476;BME280;59286;59.274;17.974;2023-04-16T06:08:40;102191.09;;;4.27;64.60
71476;BME280;59286;59.274;17.974;2023-04-16T06:11:06;102190.03;;;4.10;64.19
71476;BME280;59286;59.274;17.974;2023-04-16T06:13:31;102171.59;;;4.18;64.95
71476;BME280;59286;59.274;17.974;2023-04-16T06:15:56;102185.06;;;4.51;64.26
71476;BME280;59286;59.274;17.974;2023-04-16T06:18:22;102180.59;;;4.76;63.21
71476;BME280;59286;59.274;17.974;2023-04-16T06:20:47;102180.38;;;4.59;62.48
71476;BME280;59286;59.274;17.974;2023-04-16T06:23:13;102163.00;;;4.60;62.18
71476;BME280;59286;59.274;17.974;2023-04-16T06:25:38;102184.88;;;4.88;62.06
71476;BME280;59286;59.274;17.974;2023-04-16T06:28:03;102178.28;;;5.04;61.27
71476;BME280;59286;59.274;17.974;2023-04-16T06:30:29;102182.34;;;5.30;60.72
71476;BME280;59286;59.274;17.974;2023-04-16T06:32:54;102185.50;;;5.32;59.94
71476;BME280;59286;59.274;17.974;2023-04-16T06:35:20;102184.56;;;5.44;59.99
71476;BME280;59286;59.274;17.974;2023-04-16T06:37:45;102189.03;;;5.67;59.15
71476;BME280;59286;59.274;17.974;2023-04-16T06:40:11;102181.72;;;5.75;59.09
71476;BME280;59286;59.274;17.974;2023-04-16T06:42:36;102183.09;;;5.78;58.49
71476;BME280;59286;59.274;17.974;2023-04-16T06:45:02;102207.78;;;5.99;58.37
71476;BME280;59286;59.274;17.974;2023-04-16T06:47:27;102190.72;;;6.14;57.71
71476;BME280;59286;59.274;17.974;2023-04-16T06:49:53;102189.63;;;6.33;58.23
71476;BME280;59286;59.274;17.974;2023-04-16T06:52:18;102192.88;;;6.29;56.58
71476;BME280;59286;59.274;17.974;2023-04-16T06:54:43;102199.69;;;6.30;56.82
71476;BME280;59286;59.274;17.974;2023-04-16T06:57:09;102202.97;;;6.60;57.60
71476;BME280;59286;59.274;17.974;2023-04-16T06:59:35;102207.16;;;6.61;54.71
71476;BME280;59286;59.274;17.974;2023-04-16T07:02:00;102209.88;;;6.54;55.09
71476;BME280;59286;59.274;17.974;2023-04-16T07:04:26;102202.50;;;6.63;54.81
71476;BME280;59286;59.274;17.974;2023-04-16T07:06:51;102213.81;;;6.57;54.89
71476;BME280;59286;59.274;17.974;2023-04-16T07:09:16;102207.81;;;6.56;54.36
71476;BME280;59286;59.274;17.974;2023-04-16T07:11:42;102211.66;;;6.77;54.28
71476;BME280;59286;59.274;17.974;2023-04-16T07:14:08;102212.75;;;7.04;53.81
71476;BME280;59286;59.274;17.974;2023-04-16T07:16:34;102209.94;;;6.94;53.51
71476;BME280;59286;59.274;17.974;2023-04-16T07:19:01;102208.75;;;7.13;53.59
71476;BME280;59286;59.274;17.974;2023-04-16T07:21:27;102210.28;;;7.26;52.82
71476;BME280;59286;59.274;17.974;2023-04-16T07:23:52;102219.41;;;7.51;52.59
71476;BME280;59286;59.274;17.974;2023-04-16T07:26:17;102211.94;;;7.43;51.19
71476;BME280;59286;59.274;17.974;2023-04-16T07:28:43;102217.47;;;7.47;52.35
71476;BME280;59286;59.274;17.974;2023-04-16T07:31:08;102208.75;;;7.69;50.34
71476;BME280;59286;59.274;17.974;2023-04-16T07:33:34;102212.19;;;7.42;51.06
71476;BME280;59286;59.274;17.974;2023-04-16T07:35:59;102204.78;;;7.39;51.02
71476;BME280;59286;59.274;17.974;2023-04-16T07:38:24;102205.34;;;7.69;50.32
71476;BME280;59286;59.274;17.974;2023-04-16T07:40:50;102204.25;;;7.98;50.25
71476;BME280;59286;59.274;17.974;2023-04-16T07:43:15;102205.53;;;7.96;49.21
71476;BME280;59286;59.274;17.974;2023-04-16T07:45:41;102202.94;;;7.51;50.10
71476;BME280;59286;59.274;17.974;2023-04-16T07:48:06;102204.66;;;7.45;49.72
71476;BME280;59286;59.274;17.974;2023-04-16T07:50:31;102204.78;;;7.67;50.10
71476;BME280;59286;59.274;17.974;2023-04-16T07:52:57;102207.91;;;7.52;49.45
71476;BME280;59286;59.274;17.974;2023-04-16T07:55:22;102207.44;;;7.55;48.95
71476;BME280;59286;59.274;17.974;2023-04-16T07:57:47;102213.41;;;7.67;48.74
71476;BME280;59286;59.274;17.974;2023-04-16T08:00:13;102208.81;;;7.74;49.87
71476;BME280;59286;59.274;17.974;2023-04-16T08:02:39;102214.97;;;7.68;49.50
71476;BME280;59286;59.274;17.974;2023-04-16T08:05:05;102211.06;;;7.82;48.82
71476;BME280;59286;59.274;17.974;2023-04-16T08:07:30;102215.03;;;8.02;48.94
71476;BME280;59286;59.274;17.974;2023-04-16T08:09:56;102215.09;;;8.07;49.18
71476;BME280;59286;59.274;17.974;2023-04-16T08:12:21;102196.41;;;7.98;47.75
71476;BME280;59286;59.274;17.974;2023-04-16T08:14:47;102205.53;;;7.96;48.71
71476;BME280;59286;59.274;17.974;2023-04-16T08:17:13;102210.91;;;8.06;48.33
71476;BME280;59286;59.274;17.974;2023-04-16T08:19:39;102197.31;;;8.04;48.19
71476;BME280;59286;59.274;17.974;2023-04-16T08:22:05;102200.63;;;8.16;47.68
71476;BME280;59286;59.274;17.974;2023-04-16T08:24:30;102209.03;;;8.34;48.04
71476;BME280;59286;59.274;17.974;2023-04-16T08:26:56;102194.78;;;8.63;48.34
71476;BME280;59286;59.274;17.974;2023-04-16T08:29:21;102203.69;;;8.84;46.97
71476;BME280;59286;59.274;17.974;2023-04-16T08:31:49;102208.00;;;8.95;47.64
71476;BME280;59286;59.274;17.974;2023-04-16T08:34:14;102193.84;;;8.91;46.34
71476;BME280;59286;59.274;17.974;2023-04-16T08:36:40;102206.09;;;8.69;46.09
71476;BME280;59286;59.274;17.974;2023-04-16T08:39:05;102200.25;;;8.62;46.26
71476;BME280;59286;59.274;17.974;2023-04-16T08:41:31;102212.09;;;8.48;47.09
71476;BME280;59286;59.274;17.974;2023-04-16T08:43:59;102199.06;;;8.69;47.01
71476;BME280;59286;59.274;17.974;2023-04-16T08:46:25;102209.53;;;8.91;46.61
71476;BME280;59286;59.274;17.974;2023-04-16T08:48:53;102203.44;;;9.07;47.61
71476;BME280;59286;59.274;17.974;2023-04-16T08:51:22;102203.66;;;9.01;45.92
71476;BME280;59286;59.274;17.974;2023-04-16T08:53:52;102196.31;;;9.03;46.81
71476;BME280;59286;59.274;17.974;2023-04-16T08:56:22;102208.13;;;9.05;45.31
71476;BME280;59286;59.274;17.974;2023-04-16T08:58:49;102211.34;;;9.12;45.05
71476;BME280;59286;59.274;17.974;2023-04-16T09:01:15;102198.56;;;9.16;45.19
71476;BME280;59286;59.274;17.974;2023-04-16T09:03:43;102207.31;;;9.26;45.35
71476;BME280;59286;59.274;17.974;2023-04-16T09:06:12;102213.03;;;9.23;45.45
71476;BME280;59286;59.274;17.974;2023-04-16T09:08:38;102213.56;;;9.47;44.49
71476;BME280;59286;59.274;17.974;2023-04-16T09:11:04;102208.22;;;9.37;44.68
71476;BME280;59286;59.274;17.974;2023-04-16T09:13:30;102207.78;;;9.45;43.67
71476;BME280;59286;59.274;17.974;2023-04-16T09:15:56;102211.81;;;9.31;44.16
71476;BME280;59286;59.274;17.974;2023-04-16T09:18:22;102204.59;;;9.16;45.16
71476;BME280;59286;59.274;17.974;2023-04-16T09:20:48;102210.66;;;9.43;44.57
71476;BME280;59286;59.274;17.974;2023-04-16T09:23:15;102200.34;;;9.58;45.01
71476;BME280;59286;59.274;17.974;2023-04-16T09:25:40;102201.22;;;9.69;43.12
71476;BME280;59286;59.274;17.974;2023-04-16T09:28:05;102206.50;;;9.79;43.72
71476;BME280;59286;59.274;17.974;2023-04-16T09:30:31;102209.84;;;9.69;42.84
71476;BME280;59286;59.274;17.974;2023-04-16T09:33:20;102208.78;;;9.65;43.16
71476;BME280;59286;59.274;17.974;2023-04-16T09:35:52;102197.88;;;9.78;43.44
71476;BME280;59286;59.274;17.974;2023-04-16T09:38:19;102206.34;;;9.91;44.37
71476;BME280;59286;59.274;17.974;2023-04-16T09:40:45;102201.63;;;9.88;43.07
71476;BME280;59286;59.274;17.974;2023-04-16T09:43:12;102211.66;;;9.96;43.11
71476;BME280;59286;59.274;17.974;2023-04-16T09:45:51;102208.06;;;10.07;42.52
71476;BME280;59286;59.274;17.974;2023-04-16T09:48:35;102206.19;;;10.02;41.72
71476;BME280;59286;59.274;17.974;2023-04-16T09:51:00;102204.16;;;10.09;41.04
71476;BME280;59286;59.274;17.974;2023-04-16T09:53:28;102196.97;;;10.26;41.61
71476;BME280;59286;59.274;17.974;2023-04-16T09:55:57;102204.63;;;10.38;43.09
71476;BME280;59286;59.274;17.974;2023-04-16T09:58:23;102204.72;;;10.53;40.20
71476;BME280;59286;59.274;17.974;2023-04-16T10:00:49;102197.13;;;10.51;38.42
71476;BME280;59286;59.274;17.974;2023-04-16T10:03:28;102208.88;;;10.44;39.01
71476;BME280;59286;59.274;17.974;2023-04-16T10:05:53;102215.38;;;10.36;38.68
71476;BME280;59286;59.274;17.974;2023-04-16T10:08:18;102202.47;;;10.30;38.84
71476;BME280;59286;59.274;17.974;2023-04-16T10:10:44;102204.63;;;10.33;38.63
71476;BME280;59286;59.274;17.974;2023-04-16T10:13:09;102215.16;;;10.43;39.08
71476;BME280;59286;59.274;17.974;2023-04-16T10:15:37;102209.63;;;10.39;38.01
71476;BME280;59286;59.274;17.974;2023-04-16T10:18:03;102209.63;;;10.44;38.04
71476;BME280;59286;59.274;17.974;2023-04-16T10:20:29;102213.91;;;10.55;37.86
71476;BME280;59286;59.274;17.974;2023-04-16T10:22:55;102217.56;;;10.54;37.53
71476;BME280;59286;59.274;17.974;2023-04-16T10:25:21;102207.91;;;10.60;37.54
71476;BME280;59286;59.274;17.974;2023-04-16T10:27:47;102211.63;;;10.69;37.95
71476;BME280;59286;59.274;17.974;2023-04-16T10:30:14;102213.25;;;10.80;39.26
71476;BME280;59286;59.274;17.974;2023-04-16T10:32:41;102209.06;;;10.84;37.88
71476;BME280;59286;59.274;17.974;2023-04-16T10:35:06;102205.13;;;10.82;38.59
71476;BME280;59286;59.274;17.974;2023-04-16T10:37:32;102205.91;;;10.77;37.74
71476;BME280;59286;59.274;17.974;2023-04-16T10:39:58;102214.22;;;10.64;38.51
71476;BME280;59286;59.274;17.974;2023-04-16T10:42:24;102217.94;;;10.73;38.44
71476;BME280;59286;59.274;17.974;2023-04-16T10:44:50;102216.38;;;10.72;38.55
71476;BME280;59286;59.274;17.974;2023-04-16T10:47:15;102198.75;;;10.62;39.23
71476;BME280;59286;59.274;17.974;2023-04-16T10:49:46;102207.50;;;10.83;38.29
71476;BME280;59286;59.274;17.974;2023-04-16T10:52:14;102193.09;;;10.91;37.26
71476;BME280;59286;59.274;17.974;2023-04-16T10:54:42;102207.03;;;11.01;36.87
71476;BME280;59286;59.274;17.974;2023-04-16T10:57:09;102193.88;;;10.91;35.86
71476;BME280;59286;59.274;17.974;2023-04-16T10:59:37;102203.06;;;10.94;36.51
71476;BME280;59286;59.274;17.974;2023-04-16T11:02:08;102207.81;;;10.97;36.22
71476;BME280;59286;59.274;17.974;2023-04-16T11:04:38;102202.78;;;10.85;36.25
71476;BME280;59286;59.274;17.974;2023-04-16T11:09:55;102208.38;;;11.14;35.17
71476;BME280;59286;59.274;17.974;2023-04-16T11:14:50;102215.44;;;10.98;34.01
71476;BME280;59286;59.274;17.974;2023-04-16T11:17:17;102207.53;;;10.93;33.80
71476;BME280;59286;59.274;17.974;2023-04-16T11:19:43;102200.44;;;10.94;33.78
71476;BME280;59286;59.274;17.974;2023-04-16T11:22:11;102204.41;;;11.01;34.67
71476;BME280;59286;59.274;17.974;2023-04-16T11:24:37;102211.00;;;11.04;32.99
71476;BME280;59286;59.274;17.974;2023-04-16T11:27:05;102209.66;;;11.01;31.26
71476;BME280;59286;59.274;17.974;2023-04-16T11:29:30;102209.19;;;11.14;33.41
71476;BME280;59286;59.274;17.974;2023-04-16T11:31:55;102209.44;;;11.13;33.28
71476;BME280;59286;59.274;17.974;2023-04-16T11:34:21;102212.34;;;11.16;31.89
71476;BME280;59286;59.274;17.974;2023-04-16T11:36:48;102209.19;;;11.19;33.00
71476;BME280;59286;59.274;17.974;2023-04-16T11:39:14;102207.09;;;11.16;33.08
71476;BME280;59286;59.274;17.974;2023-04-16T11:41:50;102210.78;;;11.20;32.03
71476;BME280;59286;59.274;17.974;2023-04-16T11:46:46;102205.50;;;11.15;32.87
71476;BME280;59286;59.274;17.974;2023-04-16T11:49:11;102214.44;;;11.09;32.30
71476;BME280;59286;59.274;17.974;2023-04-16T11:51:41;102211.53;;;11.06;31.48
71476;BME280;59286;59.274;17.974;2023-04-16T11:54:06;102193.91;;;11.01;32.26
71476;BME280;59286;59.274;17.974;2023-04-16T11:56:34;102209.72;;;11.11;32.18
71476;BME280;59286;59.274;17.974;2023-04-16T11:59:11;102196.03;;;11.04;32.38
71476;BME280;59286;59.274;17.974;2023-04-16T12:01:39;102201.31;;;11.09;31.25
71476;BME280;59286;59.274;17.974;2023-04-16T12:04:05;102204.19;;;11.13;31.45
71476;BME280;59286;59.274;17.974;2023-04-16T12:06:30;102194.19;;;11.05;31.94
71476;BME280;59286;59.274;17.974;2023-04-16T12:08:59;102198.69;;;11.14;31.53
71476;BME280;59286;59.274;17.974;2023-04-16T12:11:41;102196.06;;;11.14;31.73
71476;BME280;59286;59.274;17.974;2023-04-16T12:14:11;102186.09;;;11.11;33.13
71476;BME280;59286;59.274;17.974;2023-04-16T12:16:37;102198.97;;;11.18;33.14
71476;BME280;59286;59.274;17.974;2023-04-16T12:19:03;102187.66;;;11.07;32.91
71476;BME280;59286;59.274;17.974;2023-04-16T12:21:38;102190.56;;;11.16;32.67
71476;BME280;59286;59.274;17.974;2023-04-16T12:24:05;102199.44;;;11.10;32.64
71476;BME280;59286;59.274;17.974;2023-04-16T12:26:50;102194.47;;;11.08;31.53
71476;BME280;59286;59.274;17.974;2023-04-16T12:29:25;102200.25;;;11.15;32.70
71476;BME280;59286;59.274;17.974;2023-04-16T12:31:53;102196.59;;;11.21;31.65
71476;BME280;59286;59.274;17.974;2023-04-16T12:34:19;102193.97;;;11.21;32.17
71476;BME280;59286;59.274;17.974;2023-04-16T12:36:46;102193.66;;;11.08;32.28
71476;BME280;59286;59.274;17.974;2023-04-16T12:39:13;102191.03;;;10.98;32.99
71476;BME280;59286;59.274;17.974;2023-04-16T12:41:41;102196.81;;;11.10;33.09
71476;BME280;59286;59.274;17.974;2023-04-16T12:44:08;102190.56;;;11.16;33.38
71476;BME280;59286;59.274;17.974;2023-04-16T12:46:36;102193.47;;;11.24;32.96
71476;BME280;59286;59.274;17.974;2023-04-16T12:49:02;102191.34;;;11.26;32.62
71476;BME280;59286;59.274;17.974;2023-04-16T12:51:27;102187.44;;;11.19;33.09